createdAt,value
2018-07-27T00:00:35.853Z,30.40
2018-07-27T00:01:35.919Z,30.40
2018-07-27T00:02:35.952Z,30.44
2018-07-27T00:03:35.944Z,30.36
2018-07-27T00:04:35.976Z,30.44
2018-07-27T00:05:36.004Z,30.44
2018-07-27T00:06:36.034Z,30.40
2018-07-27T00:07:36.063Z,30.48
2018-07-27T00:08:36.115Z,30.46
2018-07-27T00:09:36.127Z,30.32
2018-07-27T00:10:36.154Z,30.43
2018-07-27T00:11:36.184Z,30.46
2018-07-27T00:12:36.214Z,30.43
2018-07-27T00:13:36.253Z,30.43
2018-07-27T00:14:36.278Z,30.48
2018-07-27T00:15:36.304Z,30.39
2018-07-27T00:16:36.334Z,30.43
2018-07-27T00:17:36.364Z,30.38
2018-07-27T00:18:36.394Z,30.39
2018-07-27T00:19:36.424Z,30.46
2018-07-27T00:20:36.459Z,30.39
2018-07-27T00:21:36.485Z,30.48
2018-07-27T00:22:36.513Z,30.39
2018-07-27T00:23:36.544Z,30.38
2018-07-27T00:24:36.574Z,30.38
2018-07-27T00:25:36.605Z,30.40
2018-07-27T00:26:36.661Z,30.51
2018-07-27T00:27:36.663Z,30.32
2018-07-27T00:28:36.696Z,30.43
2018-07-27T00:29:36.725Z,30.49
2018-07-27T00:30:36.755Z,30.38
2018-07-27T00:31:36.784Z,30.39
2018-07-27T00:32:36.817Z,30.49
2018-07-27T00:33:36.844Z,30.36
2018-07-27T00:34:36.874Z,30.38
2018-07-27T00:35:36.906Z,30.38
2018-07-27T00:36:36.934Z,30.36
2018-07-27T00:37:36.997Z,30.44
2018-07-27T00:38:36.994Z,30.39
2018-07-27T00:39:37.025Z,30.49
2018-07-27T00:40:37.096Z,30.36
2018-07-27T00:41:37.084Z,30.36
2018-07-27T00:42:37.114Z,30.36
2018-07-27T00:43:37.145Z,30.40
2018-07-27T00:44:37.175Z,30.36
2018-07-27T00:45:37.251Z,30.44
2018-07-27T00:46:37.234Z,30.44
2018-07-27T00:47:37.264Z,30.38
2018-07-27T00:48:37.295Z,30.46
2018-07-27T00:49:37.326Z,30.49
2018-07-27T00:50:37.355Z,30.46
2018-07-27T00:51:37.406Z,30.39
2018-07-27T00:52:37.414Z,30.39
2018-07-27T00:53:37.444Z,30.48
2018-07-27T00:54:37.475Z,30.39
2018-07-27T00:55:37.530Z,30.40
2018-07-27T00:56:37.537Z,30.39
2018-07-27T00:57:37.565Z,30.43
2018-07-27T00:58:37.594Z,30.40
2018-07-27T00:59:37.624Z,30.40
2018-07-27T01:00:37.654Z,30.38
2018-07-27T01:01:37.687Z,30.40
2018-07-27T01:02:37.723Z,30.31
2018-07-27T01:03:37.744Z,30.40
2018-07-27T01:04:37.775Z,30.39
2018-07-27T01:05:37.804Z,30.46
2018-07-27T01:06:37.834Z,30.33
2018-07-27T01:07:37.866Z,30.32
2018-07-27T01:08:37.895Z,30.33
2018-07-27T01:09:37.924Z,30.40
2018-07-27T01:10:37.954Z,30.40
2018-07-27T01:11:37.984Z,30.40
2018-07-27T01:12:38.015Z,30.36
2018-07-27T01:13:38.064Z,30.39
2018-07-27T01:14:38.074Z,30.33
2018-07-27T01:15:38.104Z,30.26
2018-07-27T01:16:38.134Z,30.35
2018-07-27T01:17:38.165Z,30.44
2018-07-27T01:18:38.194Z,30.36
2018-07-27T01:19:38.223Z,30.33
2018-07-27T01:20:38.295Z,30.40
2018-07-27T01:21:38.284Z,30.40
2018-07-27T01:22:38.313Z,30.40
2018-07-27T01:23:38.343Z,30.36
2018-07-27T01:24:38.408Z,30.35
2018-07-27T01:25:38.404Z,30.36
2018-07-27T01:26:38.433Z,30.36
2018-07-27T01:27:38.464Z,30.35
2018-07-27T01:28:38.494Z,30.38
2018-07-27T01:29:38.524Z,30.33
2018-07-27T01:30:38.554Z,30.44
2018-07-27T01:31:38.584Z,30.38
2018-07-27T01:32:38.614Z,30.46
2018-07-27T01:33:38.643Z,30.40
2018-07-27T01:34:38.672Z,30.38
2018-07-27T01:35:38.703Z,30.38
2018-07-27T01:36:38.733Z,30.35
2018-07-27T01:37:38.764Z,30.40
2018-07-27T01:38:38.793Z,30.23
2018-07-27T01:39:38.846Z,30.32
2018-07-27T01:40:38.864Z,30.39
2018-07-27T01:41:38.884Z,30.33
2018-07-27T01:42:38.947Z,30.31
2018-07-27T01:43:38.942Z,30.38
2018-07-27T01:44:38.993Z,30.36
2018-07-27T01:45:39.003Z,30.36
2018-07-27T01:46:39.033Z,30.33
2018-07-27T01:47:39.069Z,30.39
2018-07-27T01:48:39.093Z,30.35
2018-07-27T01:49:39.126Z,30.39
2018-07-27T01:50:39.152Z,30.40
2018-07-27T01:51:39.182Z,30.29
2018-07-27T01:52:39.213Z,30.33
2018-07-27T01:53:39.242Z,30.39
2018-07-27T01:54:39.274Z,30.38
2018-07-27T01:55:39.302Z,30.36
2018-07-27T01:56:39.366Z,30.33
2018-07-27T01:57:39.362Z,30.31
2018-07-27T01:58:39.407Z,30.39
2018-07-27T01:59:39.421Z,30.40
2018-07-27T02:00:39.452Z,30.31
2018-07-27T02:01:39.483Z,30.35
2018-07-27T02:02:39.512Z,30.33
2018-07-27T02:03:39.542Z,30.33
2018-07-27T02:04:39.572Z,30.44
2018-07-27T02:05:39.603Z,30.39
2018-07-27T02:06:39.633Z,30.43
2018-07-27T02:07:39.661Z,30.33
2018-07-27T02:08:39.715Z,30.40
2018-07-27T02:09:39.722Z,30.46
2018-07-27T02:10:39.751Z,30.35
2018-07-27T02:11:39.782Z,30.40
2018-07-27T02:12:39.812Z,30.36
2018-07-27T02:13:39.844Z,30.38
2018-07-27T02:14:39.871Z,30.40
2018-07-27T02:15:39.902Z,30.43
2018-07-27T02:16:39.931Z,30.44
2018-07-27T02:17:39.962Z,30.43
2018-07-27T02:18:39.992Z,30.36
2018-07-27T02:19:40.022Z,30.36
2018-07-27T02:20:40.055Z,30.48
2018-07-27T02:21:40.082Z,30.40
2018-07-27T02:22:40.111Z,30.39
2018-07-27T02:23:40.216Z,30.44
2018-07-27T02:24:40.171Z,30.44
2018-07-27T02:25:40.203Z,30.40
2018-07-27T02:26:40.231Z,30.40
2018-07-27T02:27:40.261Z,30.44
2018-07-27T02:28:40.295Z,30.35
2018-07-27T02:29:40.322Z,30.40
2018-07-27T02:30:40.350Z,30.48
2018-07-27T02:31:40.381Z,30.46
2018-07-27T02:32:40.411Z,30.46
2018-07-27T02:33:40.449Z,30.39
2018-07-27T02:34:40.471Z,30.38
2018-07-27T02:35:40.501Z,30.48
2018-07-27T02:36:40.531Z,30.39
2018-07-27T02:37:40.562Z,30.39
2018-07-27T02:38:40.594Z,30.36
2018-07-27T02:39:40.643Z,30.39
2018-07-27T02:40:40.652Z,30.39
2018-07-27T02:41:40.682Z,30.39
2018-07-27T02:42:40.711Z,30.40
2018-07-27T02:43:40.742Z,30.36
2018-07-27T02:44:40.772Z,30.51
2018-07-27T02:45:40.836Z,30.40
2018-07-27T02:46:40.831Z,30.46
2018-07-27T02:47:40.866Z,30.48
2018-07-27T02:48:40.918Z,30.51
2018-07-27T02:49:40.922Z,30.40
2018-07-27T02:50:40.950Z,30.54
2018-07-27T02:51:40.980Z,30.49
2018-07-27T02:52:41.011Z,30.52
2018-07-27T02:53:41.041Z,30.48
2018-07-27T02:54:41.087Z,30.55
2018-07-27T02:55:41.102Z,30.48
2018-07-27T02:56:41.130Z,30.59
2018-07-27T02:57:41.161Z,30.56
2018-07-27T02:58:41.190Z,30.69
2018-07-27T02:59:41.220Z,30.69
2018-07-27T03:00:41.252Z,30.71
2018-07-27T03:01:41.281Z,30.70
2018-07-27T03:02:41.354Z,30.67
2018-07-27T03:03:41.340Z,30.71
2018-07-27T03:04:41.373Z,30.69
2018-07-27T03:05:41.401Z,30.77
2018-07-27T03:06:41.451Z,30.78
2018-07-27T03:07:41.460Z,30.81
2018-07-27T03:08:41.490Z,30.80
2018-07-27T03:09:41.620Z,30.86
2018-07-27T03:10:41.551Z,30.81
2018-07-27T03:11:41.582Z,30.83
2018-07-27T03:12:41.611Z,30.77
2018-07-27T03:13:41.641Z,30.81
2018-07-27T03:14:41.670Z,30.81
2018-07-27T03:15:41.701Z,30.83
2018-07-27T03:16:41.731Z,30.86
2018-07-27T03:17:41.760Z,30.81
2018-07-27T03:18:41.791Z,30.83
2018-07-27T03:19:41.821Z,30.81
2018-07-27T03:20:41.851Z,30.83
2018-07-27T03:21:41.881Z,30.86
2018-07-27T03:22:41.911Z,30.81
2018-07-27T03:23:41.973Z,30.78
2018-07-27T03:24:41.972Z,30.83
2018-07-27T03:25:42.001Z,30.83
2018-07-27T03:26:42.031Z,30.76
2018-07-27T03:27:42.061Z,30.86
2018-07-27T03:28:42.091Z,30.86
2018-07-27T03:29:42.121Z,30.83
2018-07-27T03:30:42.151Z,30.91
2018-07-27T03:31:42.181Z,30.81
2018-07-27T03:32:42.216Z,30.88
2018-07-27T03:33:42.243Z,30.92
2018-07-27T03:34:42.272Z,30.91
2018-07-27T03:35:42.301Z,30.89
2018-07-27T03:36:42.334Z,30.89
2018-07-27T03:37:42.368Z,30.86
2018-07-27T03:38:42.392Z,30.85
2018-07-27T03:39:42.422Z,30.89
2018-07-27T03:40:42.457Z,30.91
2018-07-27T03:41:42.484Z,30.91
2018-07-27T03:42:42.512Z,30.88
2018-07-27T03:43:42.577Z,30.83
2018-07-27T03:44:42.573Z,30.89
2018-07-27T03:45:42.603Z,30.88
2018-07-27T03:46:42.633Z,30.86
2018-07-27T03:47:42.663Z,30.89
2018-07-27T03:48:42.700Z,30.93
2018-07-27T03:49:42.753Z,30.93
2018-07-27T03:50:42.754Z,30.96
2018-07-27T03:51:42.784Z,30.96
2018-07-27T03:52:42.814Z,31.00
2018-07-27T03:53:42.844Z,30.93
2018-07-27T03:54:42.878Z,30.91
2018-07-27T03:55:42.927Z,30.88
2018-07-27T03:56:42.935Z,31.05
2018-07-27T03:57:42.965Z,30.99
2018-07-27T03:58:42.994Z,31.00
2018-07-27T03:59:43.025Z,31.02
2018-07-27T04:00:43.057Z,31.07
2018-07-27T04:01:43.085Z,31.11
2018-07-27T04:02:43.114Z,31.05
2018-07-27T04:03:43.145Z,31.08
2018-07-27T04:04:43.175Z,31.13
2018-07-27T04:05:43.205Z,31.15
2018-07-27T04:06:43.235Z,31.18
2018-07-27T04:07:43.266Z,31.15
2018-07-27T04:08:43.361Z,31.32
2018-07-27T04:09:43.326Z,31.25
2018-07-27T04:10:43.391Z,31.30
2018-07-27T04:11:43.390Z,31.22
2018-07-27T04:12:43.417Z,31.22
2018-07-27T04:13:43.447Z,31.25
2018-07-27T04:14:43.476Z,31.22
2018-07-27T04:15:43.524Z,31.26
2018-07-27T04:16:43.578Z,31.23
2018-07-27T04:17:43.567Z,31.20
2018-07-27T04:18:43.596Z,31.18
2018-07-27T04:19:43.669Z,31.13
2018-07-27T04:20:43.657Z,31.10
2018-07-27T04:21:43.688Z,31.08
2018-07-27T04:22:43.720Z,31.08
2018-07-27T04:23:43.747Z,31.04
2018-07-27T04:24:43.778Z,31.04
2018-07-27T04:25:43.839Z,30.99
2018-07-27T04:26:43.837Z,30.99
2018-07-27T04:27:43.869Z,30.92
2018-07-27T04:28:43.908Z,30.98
2018-07-27T04:29:43.940Z,30.89
2018-07-27T04:30:43.958Z,30.91
2018-07-27T04:31:43.989Z,30.91
2018-07-27T04:32:44.019Z,30.81
2018-07-27T04:33:44.050Z,30.76
2018-07-27T04:34:44.079Z,30.73
2018-07-27T04:35:44.174Z,30.81
2018-07-27T04:36:44.140Z,30.81
2018-07-27T04:37:44.170Z,30.81
2018-07-27T04:38:44.201Z,30.78
2018-07-27T04:39:44.230Z,30.85
2018-07-27T04:40:44.260Z,30.85
2018-07-27T04:41:44.291Z,30.88
2018-07-27T04:42:44.320Z,30.88
2018-07-27T04:43:44.351Z,30.85
2018-07-27T04:44:44.381Z,30.88
2018-07-27T04:45:44.410Z,30.91
2018-07-27T04:46:44.442Z,30.89
2018-07-27T04:47:44.471Z,30.81
2018-07-27T04:48:44.501Z,30.81
2018-07-27T04:49:44.532Z,30.81
2018-07-27T04:50:44.562Z,30.83
2018-07-27T04:51:44.600Z,30.78
2018-07-27T04:52:44.623Z,30.77
2018-07-27T04:53:44.651Z,30.67
2018-07-27T04:54:44.685Z,30.71
2018-07-27T04:55:44.711Z,30.67
2018-07-27T04:56:44.780Z,30.71
2018-07-27T04:57:44.772Z,30.63
2018-07-27T04:58:44.826Z,30.71
2018-07-27T04:59:44.832Z,30.59
2018-07-27T05:00:44.862Z,30.58
2018-07-27T05:01:44.892Z,30.62
2018-07-27T05:02:44.935Z,30.58
2018-07-27T05:03:44.952Z,30.54
2018-07-27T05:04:45.026Z,30.58
2018-07-27T05:05:45.013Z,30.52
2018-07-27T05:06:45.044Z,30.54
2018-07-27T05:07:45.072Z,30.55
2018-07-27T05:08:45.102Z,30.63
2018-07-27T05:09:45.133Z,30.59
2018-07-27T05:10:45.184Z,30.63
2018-07-27T05:11:45.244Z,30.56
2018-07-27T05:12:45.221Z,30.59
2018-07-27T05:13:45.252Z,30.61
2018-07-27T05:14:45.284Z,30.59
2018-07-27T05:15:45.314Z,30.63
2018-07-27T05:16:45.342Z,30.69
2018-07-27T05:17:45.374Z,30.67
2018-07-27T05:18:45.401Z,30.58
2018-07-27T05:19:45.432Z,30.58
2018-07-27T05:20:45.463Z,30.62
2018-07-27T05:21:45.492Z,30.56
2018-07-27T05:22:45.521Z,30.62
2018-07-27T05:23:45.552Z,30.65
2018-07-27T05:24:45.584Z,30.54
2018-07-27T05:25:45.611Z,30.63
2018-07-27T05:26:45.641Z,30.56
2018-07-27T05:27:45.673Z,30.54
2018-07-27T05:28:45.701Z,30.63
2018-07-27T05:29:45.732Z,30.55
2018-07-27T05:30:45.765Z,30.61
2018-07-27T05:31:45.793Z,30.54
2018-07-27T05:32:45.823Z,30.51
2018-07-27T05:33:45.852Z,30.58
2018-07-27T05:34:45.881Z,30.59
2018-07-27T05:35:45.911Z,30.59
2018-07-27T05:36:45.942Z,30.54
2018-07-27T05:37:45.972Z,30.58
2018-07-27T05:38:46.000Z,30.67
2018-07-27T05:39:46.030Z,30.67
2018-07-27T05:40:46.061Z,30.70
2018-07-27T05:41:46.092Z,30.70
2018-07-27T05:42:46.120Z,30.69
2018-07-27T05:43:46.154Z,30.59
2018-07-27T05:44:46.181Z,30.58
2018-07-27T05:45:46.211Z,30.58
2018-07-27T05:46:46.296Z,30.56
2018-07-27T05:47:46.282Z,30.58
2018-07-27T05:48:46.323Z,30.62
2018-07-27T05:49:46.332Z,30.56
2018-07-27T05:50:46.361Z,30.65
2018-07-27T05:51:46.391Z,30.65
2018-07-27T05:52:46.460Z,30.70
2018-07-27T05:53:46.456Z,30.65
2018-07-27T05:54:46.526Z,30.70
2018-07-27T05:55:46.511Z,30.65
2018-07-27T05:56:46.542Z,30.65
2018-07-27T05:57:46.572Z,30.70
2018-07-27T05:58:46.627Z,30.65
2018-07-27T05:59:46.632Z,30.73
2018-07-27T06:00:46.662Z,30.69
2018-07-27T06:01:46.711Z,30.71
2018-07-27T06:02:46.830Z,30.73
2018-07-27T06:03:46.751Z,30.70
2018-07-27T06:04:46.785Z,30.67
2018-07-27T06:05:46.817Z,30.80
2018-07-27T06:06:46.843Z,30.83
2018-07-27T06:07:46.871Z,30.85
2018-07-27T06:08:46.925Z,30.85
2018-07-27T06:09:46.932Z,30.80
2018-07-27T06:10:46.985Z,30.91
2018-07-27T06:11:46.992Z,30.89
2018-07-27T06:12:47.022Z,30.92
2018-07-27T06:13:47.052Z,30.88
2018-07-27T06:14:47.083Z,30.95
2018-07-27T06:15:47.112Z,30.88
2018-07-27T06:16:47.142Z,30.86
2018-07-27T06:17:47.237Z,30.85
2018-07-27T06:18:47.202Z,30.88
2018-07-27T06:19:47.249Z,30.88
2018-07-27T06:20:47.263Z,30.91
2018-07-27T06:21:47.293Z,30.89
2018-07-27T06:22:47.325Z,31.05
2018-07-27T06:23:47.430Z,30.92
2018-07-27T06:24:47.422Z,30.91
2018-07-27T06:25:47.442Z,30.92
2018-07-27T06:26:47.445Z,30.99
2018-07-27T06:27:47.490Z,31.00
2018-07-27T06:28:47.504Z,30.99
2018-07-27T06:29:47.534Z,31.02
2018-07-27T06:30:47.564Z,30.98
2018-07-27T06:31:47.598Z,31.04
2018-07-27T06:32:47.659Z,31.00
2018-07-27T06:33:47.656Z,31.07
2018-07-27T06:34:47.685Z,31.00
2018-07-27T06:35:47.716Z,31.07
2018-07-27T06:36:47.746Z,31.10
2018-07-27T06:37:47.776Z,31.07
2018-07-27T06:38:47.805Z,31.04
2018-07-27T06:39:47.854Z,31.00
2018-07-27T06:40:47.870Z,31.05
2018-07-27T06:41:47.910Z,31.00
2018-07-27T06:42:47.966Z,31.00
2018-07-27T06:43:47.957Z,31.10
2018-07-27T06:44:48.012Z,31.17
2018-07-27T06:45:48.018Z,31.13
2018-07-27T06:46:48.047Z,31.10
2018-07-27T06:47:48.080Z,31.05
2018-07-27T06:48:48.121Z,31.15
2018-07-27T06:49:48.141Z,31.04
2018-07-27T06:50:48.168Z,31.08
2018-07-27T06:51:48.198Z,31.10
2018-07-27T06:52:48.229Z,31.10
2018-07-27T06:53:48.259Z,31.13
2018-07-27T06:54:48.289Z,31.22
2018-07-27T06:55:48.319Z,31.08
2018-07-27T06:56:48.349Z,31.10
2018-07-27T06:57:48.381Z,31.13
2018-07-27T06:58:48.416Z,31.10
2018-07-27T06:59:48.441Z,31.11
2018-07-27T07:00:48.471Z,31.13
2018-07-27T07:01:48.501Z,31.15
2018-07-27T07:02:48.532Z,31.13
2018-07-27T07:03:48.561Z,31.10
2018-07-27T07:04:48.593Z,31.10
2018-07-27T07:05:48.627Z,31.11
2018-07-27T07:06:48.686Z,31.08
2018-07-27T07:07:48.682Z,31.11
2018-07-27T07:08:48.712Z,31.14
2018-07-27T07:09:48.744Z,31.11
2018-07-27T07:10:48.773Z,31.10
2018-07-27T07:11:48.803Z,30.99
2018-07-27T07:12:48.833Z,31.07
2018-07-27T07:13:48.864Z,31.04
2018-07-27T07:14:48.894Z,30.98
2018-07-27T07:15:48.924Z,31.00
2018-07-27T07:16:48.955Z,30.96
2018-07-27T07:17:48.984Z,31.02
2018-07-27T07:18:49.015Z,31.00
2018-07-27T07:19:49.045Z,31.02
2018-07-27T07:20:49.076Z,30.93
2018-07-27T07:21:49.106Z,30.93
2018-07-27T07:22:49.135Z,30.99
2018-07-27T07:23:49.166Z,30.98
2018-07-27T07:24:49.195Z,31.04
2018-07-27T07:25:49.534Z,30.86
2018-07-27T07:26:49.255Z,30.93
2018-07-27T07:27:49.286Z,30.89
2018-07-27T07:28:49.316Z,30.88
2018-07-27T07:29:49.347Z,30.91
2018-07-27T07:30:49.378Z,30.92
2018-07-27T07:31:49.409Z,30.86
2018-07-27T07:32:49.437Z,30.89
2018-07-27T07:33:49.466Z,30.89
2018-07-27T07:34:49.496Z,30.89
2018-07-27T07:35:49.559Z,30.86
2018-07-27T07:36:49.596Z,30.93
2018-07-27T07:37:49.588Z,30.86
2018-07-27T07:38:49.616Z,30.88
2018-07-27T07:39:49.647Z,30.92
2018-07-27T07:40:49.677Z,30.83
2018-07-27T07:41:49.707Z,30.88
2018-07-27T07:42:49.742Z,30.88
2018-07-27T07:43:49.789Z,30.88
2018-07-27T07:44:49.797Z,30.88
2018-07-27T07:45:49.828Z,30.85
2018-07-27T07:46:49.859Z,30.93
2018-07-27T07:47:49.888Z,30.91
2018-07-27T07:48:49.918Z,30.88
2018-07-27T07:49:49.948Z,30.89
2018-07-27T07:50:49.979Z,30.89
2018-07-27T07:51:50.008Z,30.86
2018-07-27T07:52:50.038Z,30.89
2018-07-27T07:53:50.078Z,30.93
2018-07-27T07:54:50.126Z,30.92
2018-07-27T07:55:50.128Z,30.81
2018-07-27T07:56:50.165Z,30.76
2018-07-27T07:57:50.189Z,30.80
2018-07-27T07:58:50.222Z,30.95
2018-07-27T07:59:50.256Z,30.78
2018-07-27T08:00:50.280Z,30.91
2018-07-27T08:01:50.311Z,30.86
2018-07-27T08:02:50.339Z,30.81
2018-07-27T08:03:50.370Z,30.81
2018-07-27T08:04:50.400Z,30.85
2018-07-27T08:05:50.430Z,30.80
2018-07-27T08:06:50.487Z,30.83
2018-07-27T08:07:50.489Z,30.81
2018-07-27T08:08:50.520Z,30.78
2018-07-27T08:09:50.551Z,30.81
2018-07-27T08:10:50.579Z,30.86
2018-07-27T08:11:50.609Z,30.81
2018-07-27T08:12:50.640Z,30.83
2018-07-27T08:13:50.671Z,30.81
2018-07-27T08:14:50.700Z,30.78
2018-07-27T08:15:50.730Z,30.78
2018-07-27T08:16:50.772Z,30.80
2018-07-27T08:17:50.791Z,30.81
2018-07-27T08:18:50.820Z,30.78
2018-07-27T08:19:50.851Z,30.86
2018-07-27T08:20:50.881Z,30.85
2018-07-27T08:21:50.911Z,30.81
2018-07-27T08:22:50.941Z,30.81
2018-07-27T08:23:50.971Z,30.86
2018-07-27T08:24:51.000Z,30.93
2018-07-27T08:25:51.038Z,30.83
2018-07-27T08:26:51.060Z,30.86
2018-07-27T08:27:51.091Z,30.83
2018-07-27T08:28:51.121Z,30.81
2018-07-27T08:29:51.163Z,30.86
2018-07-27T08:30:51.180Z,30.73
2018-07-27T08:31:51.211Z,30.78
2018-07-27T08:32:51.241Z,30.78
2018-07-27T08:33:51.272Z,30.81
2018-07-27T08:34:51.302Z,30.80
2018-07-27T08:35:51.331Z,30.88
2018-07-27T08:36:51.363Z,30.85
2018-07-27T08:37:51.392Z,30.81
2018-07-27T08:38:51.428Z,30.81
2018-07-27T08:39:51.466Z,30.89
2018-07-27T08:40:51.482Z,30.81
2018-07-27T08:41:51.524Z,30.83
2018-07-27T08:42:51.542Z,30.86
2018-07-27T08:43:51.572Z,30.81
2018-07-27T08:44:51.602Z,30.83
2018-07-27T08:45:51.633Z,30.81
2018-07-27T08:46:51.662Z,30.86
2018-07-27T08:47:51.693Z,30.81
2018-07-27T08:48:51.723Z,30.83
2018-07-27T08:49:51.753Z,30.77
2018-07-27T08:50:51.783Z,30.81
2018-07-27T08:51:51.833Z,30.83
2018-07-27T08:52:51.843Z,30.78
2018-07-27T08:53:51.873Z,30.81
2018-07-27T08:54:51.902Z,30.81
2018-07-27T08:55:51.933Z,30.81
2018-07-27T08:56:51.962Z,30.81
2018-07-27T08:57:51.994Z,30.85
2018-07-27T08:58:52.023Z,30.81
2018-07-27T08:59:52.053Z,30.80
2018-07-27T09:00:52.083Z,30.81
2018-07-27T09:01:52.117Z,30.81
2018-07-27T09:02:52.144Z,30.85
2018-07-27T09:03:52.183Z,30.89
2018-07-27T09:04:52.205Z,30.88
2018-07-27T09:05:52.237Z,30.86
2018-07-27T09:06:52.264Z,30.88
2018-07-27T09:07:52.304Z,30.91
2018-07-27T09:08:52.324Z,30.86
2018-07-27T09:09:52.356Z,30.89
2018-07-27T09:10:52.386Z,30.91
2018-07-27T09:11:52.417Z,30.91
2018-07-27T09:12:52.445Z,30.85
2018-07-27T09:13:52.477Z,30.91
2018-07-27T09:14:52.510Z,30.92
2018-07-27T09:15:52.534Z,30.89
2018-07-27T09:16:52.573Z,30.92
2018-07-27T09:17:52.596Z,31.02
2018-07-27T09:18:52.624Z,30.96
2018-07-27T09:19:52.655Z,30.93
2018-07-27T09:20:52.684Z,30.99
2018-07-27T09:21:52.717Z,30.99
2018-07-27T09:22:52.747Z,30.95
2018-07-27T09:23:52.778Z,30.89
2018-07-27T09:24:52.909Z,30.85
2018-07-27T09:25:52.862Z,30.88
2018-07-27T09:26:52.873Z,30.88
2018-07-27T09:27:52.898Z,30.99
2018-07-27T09:28:52.953Z,31.04
2018-07-27T09:29:52.969Z,31.04
2018-07-27T09:30:52.988Z,30.93
2018-07-27T09:31:53.017Z,30.98
2018-07-27T09:32:53.047Z,30.92
2018-07-27T09:33:53.077Z,30.98
2018-07-27T09:34:53.106Z,30.92
2018-07-27T09:35:53.161Z,31.00
2018-07-27T09:36:53.167Z,30.96
2018-07-27T09:37:53.197Z,30.98
2018-07-27T09:38:53.227Z,31.04
2018-07-27T09:39:53.258Z,31.02
2018-07-27T09:40:53.287Z,30.98
2018-07-27T09:41:53.360Z,31.02
2018-07-27T09:42:53.348Z,31.02
2018-07-27T09:43:53.378Z,31.00
2018-07-27T09:44:53.408Z,31.00
2018-07-27T09:45:53.441Z,30.99
2018-07-27T09:46:53.473Z,31.00
2018-07-27T09:47:53.498Z,30.98
2018-07-27T09:48:53.537Z,31.00
2018-07-27T09:49:53.559Z,30.99
2018-07-27T09:50:53.590Z,31.00
2018-07-27T09:51:53.619Z,30.99
2018-07-27T09:52:53.673Z,31.00
2018-07-27T09:53:53.746Z,31.00
2018-07-27T09:54:53.710Z,30.99
2018-07-27T09:55:53.740Z,30.98
2018-07-27T09:56:53.770Z,31.04
2018-07-27T09:57:53.835Z,31.04
2018-07-27T09:58:53.829Z,30.99
2018-07-27T09:59:53.860Z,30.98
2018-07-27T10:00:53.890Z,30.96
2018-07-27T10:01:53.924Z,30.98
2018-07-27T10:02:53.990Z,31.00
2018-07-27T10:03:53.980Z,31.04
2018-07-27T10:04:54.013Z,31.02
2018-07-27T10:05:54.062Z,31.00
2018-07-27T10:06:54.071Z,31.08
2018-07-27T10:07:54.102Z,31.08
2018-07-27T10:08:54.131Z,31.07
2018-07-27T10:09:54.161Z,31.10
2018-07-27T10:10:54.192Z,31.08
2018-07-27T10:11:54.222Z,31.00
2018-07-27T10:12:54.315Z,31.11
2018-07-27T10:13:54.283Z,31.07
2018-07-27T10:14:54.313Z,31.15
2018-07-27T10:15:54.344Z,31.15
2018-07-27T10:16:54.373Z,31.11
2018-07-27T10:17:54.403Z,31.13
2018-07-27T10:18:54.433Z,31.07
2018-07-27T10:19:54.463Z,31.18
2018-07-27T10:20:54.497Z,31.22
2018-07-27T10:21:54.524Z,31.18
2018-07-27T10:22:54.553Z,31.14
2018-07-27T10:23:54.583Z,31.20
2018-07-27T10:24:54.614Z,31.22
2018-07-27T10:25:54.644Z,31.17
2018-07-27T10:26:54.674Z,31.23
2018-07-27T10:27:54.707Z,31.28
2018-07-27T10:28:54.734Z,31.29
2018-07-27T10:29:54.765Z,31.22
2018-07-27T10:30:54.794Z,31.26
2018-07-27T10:31:54.861Z,31.26
2018-07-27T10:32:54.858Z,31.28
2018-07-27T10:33:54.886Z,31.26
2018-07-27T10:34:54.915Z,31.26
2018-07-27T10:35:54.945Z,31.26
2018-07-27T10:36:54.976Z,31.32
2018-07-27T10:37:55.007Z,31.25
2018-07-27T10:38:55.036Z,31.32
2018-07-27T10:39:55.068Z,31.28
2018-07-27T10:40:55.127Z,31.33
2018-07-27T10:41:55.127Z,31.36
2018-07-27T10:42:55.157Z,31.29
2018-07-27T10:43:55.187Z,31.35
2018-07-27T10:44:55.222Z,31.29
2018-07-27T10:45:55.248Z,31.30
2018-07-27T10:46:55.277Z,31.39
2018-07-27T10:47:55.308Z,31.36
2018-07-27T10:48:55.339Z,31.35
2018-07-27T10:49:55.372Z,31.33
2018-07-27T10:50:55.399Z,31.32
2018-07-27T10:51:55.440Z,31.33
2018-07-27T10:52:55.465Z,31.36
2018-07-27T10:53:55.491Z,31.32
2018-07-27T10:54:55.525Z,31.35
2018-07-27T10:55:55.550Z,31.33
2018-07-27T10:56:55.581Z,31.33
2018-07-27T10:57:55.619Z,31.33
2018-07-27T10:58:55.642Z,31.33
2018-07-27T10:59:55.672Z,31.35
2018-07-27T11:00:55.707Z,31.35
2018-07-27T11:01:55.733Z,31.32
2018-07-27T11:02:55.762Z,31.32
2018-07-27T11:03:55.796Z,31.35
2018-07-27T11:04:55.824Z,31.37
2018-07-27T11:05:55.854Z,31.36
2018-07-27T11:06:55.882Z,31.29
2018-07-27T11:07:55.913Z,31.35
2018-07-27T11:08:55.945Z,31.41
2018-07-27T11:09:55.978Z,31.33
2018-07-27T11:10:56.004Z,31.35
2018-07-27T11:11:56.035Z,31.39
2018-07-27T11:12:56.106Z,31.33
2018-07-27T11:13:56.096Z,31.42
2018-07-27T11:14:56.133Z,31.33
2018-07-27T11:15:56.155Z,31.30
2018-07-27T11:16:56.186Z,31.41
2018-07-27T11:17:56.318Z,31.39
2018-07-27T11:18:56.246Z,31.36
2018-07-27T11:19:56.291Z,31.47
2018-07-27T11:20:56.335Z,31.48
2018-07-27T11:21:56.337Z,31.41
2018-07-27T11:22:56.367Z,31.37
2018-07-27T11:23:56.399Z,31.35
2018-07-27T11:24:56.428Z,31.44
2018-07-27T11:25:56.485Z,31.37
2018-07-27T11:26:56.489Z,31.37
2018-07-27T11:27:56.518Z,31.36
2018-07-27T11:28:56.594Z,31.33
2018-07-27T11:29:56.579Z,31.30
2018-07-27T11:30:56.662Z,31.37
2018-07-27T11:31:56.640Z,31.39
2018-07-27T11:32:56.671Z,31.36
2018-07-27T11:33:56.702Z,31.41
2018-07-27T11:34:56.731Z,31.51
2018-07-27T11:35:56.762Z,31.44
2018-07-27T11:36:56.796Z,31.42
2018-07-27T11:37:56.842Z,31.33
2018-07-27T11:38:56.851Z,31.41
2018-07-27T11:39:56.882Z,31.42
2018-07-27T11:40:56.914Z,31.33
2018-07-27T11:41:56.944Z,31.41
2018-07-27T11:42:56.974Z,31.42
2018-07-27T11:43:57.004Z,31.48
2018-07-27T11:44:57.059Z,31.36
2018-07-27T11:45:57.064Z,31.41
2018-07-27T11:46:57.094Z,31.42
2018-07-27T11:47:57.127Z,31.50
2018-07-27T11:48:57.155Z,31.44
2018-07-27T11:49:57.185Z,31.42
2018-07-27T11:50:57.215Z,31.39
2018-07-27T11:51:57.246Z,31.47
2018-07-27T11:52:57.288Z,31.45
2018-07-27T11:53:57.306Z,31.35
2018-07-27T11:54:57.336Z,31.39
2018-07-27T11:55:57.366Z,31.50
2018-07-27T11:56:57.430Z,31.42
2018-07-27T11:57:57.456Z,31.35
2018-07-27T11:58:57.457Z,31.39
2018-07-27T11:59:57.488Z,31.41
2018-07-27T12:00:57.518Z,31.37
2018-07-27T12:01:57.549Z,31.45
2018-07-27T12:02:57.579Z,31.41
2018-07-27T12:03:57.630Z,31.41
2018-07-27T12:04:57.642Z,31.41
2018-07-27T12:05:57.669Z,31.50
2018-07-27T12:06:57.742Z,31.33
2018-07-27T12:07:57.729Z,31.37
2018-07-27T12:08:57.760Z,31.47
2018-07-27T12:09:57.790Z,31.47
2018-07-27T12:10:57.820Z,31.47
2018-07-27T12:11:57.851Z,31.47
2018-07-27T12:12:57.911Z,31.36
2018-07-27T12:13:58.059Z,31.50
2018-07-27T12:14:58.048Z,31.37
2018-07-27T12:15:57.972Z,31.41
2018-07-27T12:16:58.002Z,31.47
2018-07-27T12:17:58.033Z,31.47
2018-07-27T12:18:58.063Z,31.50
2018-07-27T12:19:58.093Z,31.41
2018-07-27T12:20:58.299Z,31.41
2018-07-27T12:21:58.155Z,31.33
2018-07-27T12:22:58.184Z,31.47
2018-07-27T12:23:58.213Z,31.35
2018-07-27T12:24:58.272Z,31.41
2018-07-27T12:25:58.275Z,31.41
2018-07-27T12:26:58.315Z,31.37
2018-07-27T12:27:58.335Z,31.39
2018-07-27T12:28:58.366Z,31.36
2018-07-27T12:29:58.396Z,31.50
2018-07-27T12:30:58.426Z,31.41
2018-07-27T12:31:58.487Z,31.42
2018-07-27T12:32:58.487Z,31.44
2018-07-27T12:33:58.525Z,31.50
2018-07-27T12:34:58.548Z,31.39
2018-07-27T12:35:58.578Z,31.41
2018-07-27T12:36:58.610Z,31.45
2018-07-27T12:37:58.640Z,31.37
2018-07-27T12:38:58.740Z,31.41
2018-07-27T12:39:58.699Z,31.33
2018-07-27T12:40:58.729Z,31.47
2018-07-27T12:41:58.760Z,31.44
2018-07-27T12:42:58.790Z,31.42
2018-07-27T12:43:58.857Z,31.39
2018-07-27T12:44:58.885Z,31.42
2018-07-27T12:45:58.882Z,31.39
2018-07-27T12:46:58.911Z,31.36
2018-07-27T12:47:58.943Z,31.44
2018-07-27T12:48:58.971Z,31.47
2018-07-27T12:49:59.003Z,31.44
2018-07-27T12:50:59.032Z,31.39
2018-07-27T12:51:59.065Z,31.42
2018-07-27T12:52:59.093Z,31.41